createdAt,value
2019-04-04T00:01:55.935Z,96.60
2019-04-04T00:04:23.384Z,96.60
2019-04-04T00:06:50.741Z,96.60
2019-04-04T00:09:17.856Z,96.60
2019-04-04T00:11:44.767Z,96.60
2019-04-04T00:14:13.009Z,96.60
2019-04-04T00:16:41.052Z,96.60
2019-04-04T00:19:08.139Z,96.60
2019-04-04T00:21:35.510Z,96.60
2019-04-04T00:24:02.787Z,96.60
2019-04-04T00:26:29.671Z,96.60
2019-04-04T00:28:56.979Z,96.60
2019-04-04T00:31:24.074Z,96.60
2019-04-04T00:33:51.119Z,96.60
2019-04-04T00:36:18.452Z,96.60
2019-04-04T00:38:45.541Z,96.60
2019-04-04T00:41:13.075Z,96.60
2019-04-04T00:43:40.931Z,96.60
2019-04-04T00:46:08.437Z,96.60
2019-04-04T00:48:35.653Z,96.60
2019-04-04T00:51:03.871Z,96.60
2019-04-04T00:53:31.195Z,96.60
2019-04-04T00:55:58.302Z,96.60
2019-04-04T00:58:25.439Z,96.60
2019-04-04T01:00:52.976Z,96.60
2019-04-04T01:03:21.940Z,96.60
2019-04-04T01:05:49.356Z,96.60
2019-04-04T01:08:16.799Z,96.60
2019-04-04T01:10:43.781Z,96.60
2019-04-04T01:13:10.975Z,96.60
2019-04-04T01:15:41.391Z,96.60
2019-04-04T01:18:08.778Z,96.60
2019-04-04T01:20:36.384Z,96.60
2019-04-04T01:23:03.538Z,96.60
2019-04-04T01:25:32.672Z,96.60
2019-04-04T01:27:59.437Z,96.60
2019-04-04T01:30:26.700Z,96.60
2019-04-04T01:32:54.053Z,96.60
2019-04-04T01:35:22.821Z,96.60
2019-04-04T01:37:50.367Z,96.60
2019-04-04T01:40:17.207Z,96.60
2019-04-04T01:42:47.434Z,96.60
2019-04-04T01:45:14.683Z,96.60
2019-04-04T01:47:41.888Z,96.60
2019-04-04T01:50:12.761Z,96.60
2019-04-04T01:52:39.911Z,96.60
2019-04-04T01:55:07.316Z,96.60
2019-04-04T01:57:34.443Z,96.60
2019-04-04T02:00:01.758Z,96.60
2019-04-04T02:02:29.815Z,96.60
2019-04-04T02:04:57.047Z,96.60
2019-04-04T02:07:24.439Z,96.60
2019-04-04T02:09:52.012Z,96.60
2019-04-04T02:12:18.919Z,96.60
2019-04-04T02:14:46.209Z,96.60
2019-04-04T02:17:13.666Z,96.60
2019-04-04T02:19:44.421Z,96.60
2019-04-04T02:22:11.431Z,96.60
2019-04-04T02:24:38.453Z,96.60
2019-04-04T02:27:06.929Z,96.60
2019-04-04T02:29:34.717Z,96.60
2019-04-04T02:32:05.873Z,96.60
2019-04-04T02:34:37.202Z,96.60
2019-04-04T02:37:02.414Z,96.60
2019-04-04T02:39:29.887Z,96.60
2019-04-04T02:41:57.071Z,96.60
2019-04-04T02:44:24.407Z,96.60
2019-04-04T02:46:51.416Z,96.60
2019-04-04T02:49:18.576Z,96.60
2019-04-04T02:51:45.579Z,96.60
2019-04-04T02:54:12.672Z,96.60
2019-04-04T02:56:39.830Z,96.60
2019-04-04T02:59:08.329Z,96.60
2019-04-04T03:01:35.640Z,96.60
2019-04-04T03:04:02.943Z,96.60
2019-04-04T03:06:30.247Z,96.60
2019-04-04T03:08:57.457Z,96.60
2019-04-04T03:11:24.827Z,96.60
2019-04-04T03:13:52.307Z,96.60
2019-04-04T03:16:21.518Z,96.60
2019-04-04T03:18:49.267Z,96.60
2019-04-04T03:21:17.023Z,96.60
2019-04-04T03:23:44.268Z,96.60
2019-04-04T03:26:11.494Z,96.60
2019-04-04T03:28:39.340Z,96.60
2019-04-04T03:31:06.868Z,96.60
2019-04-04T03:33:33.929Z,96.60
2019-04-04T03:36:04.641Z,96.60
2019-04-04T03:38:31.625Z,96.60
2019-04-04T03:40:58.806Z,96.60
2019-04-04T03:43:25.975Z,96.60
2019-04-04T03:45:53.422Z,96.60
2019-04-04T03:48:20.502Z,96.60
2019-04-04T03:50:47.759Z,96.60
2019-04-04T03:53:17.408Z,96.60
2019-04-04T03:55:45.034Z,96.60
2019-04-04T03:58:12.389Z,96.60
2019-04-04T04:00:40.665Z,96.60
2019-04-04T04:03:07.849Z,96.60
2019-04-04T04:05:40.714Z,96.60
2019-04-04T04:08:07.496Z,96.10
2019-04-04T04:10:34.884Z,95.70
2019-04-04T04:13:02.218Z,96.20
2019-04-04T04:15:30.474Z,96.20
2019-04-04T04:17:57.971Z,96.50
2019-04-04T04:20:25.309Z,96.30
2019-04-04T04:22:52.515Z,96.40
2019-04-04T04:25:19.913Z,96.50
2019-04-04T04:27:48.715Z,96.60
2019-04-04T04:30:16.992Z,96.60
2019-04-04T04:32:44.492Z,96.30
2019-04-04T04:35:12.218Z,95.80
2019-04-04T04:37:39.205Z,95.20
2019-04-04T04:40:06.721Z,95.00
2019-04-04T04:42:33.966Z,95.20
2019-04-04T04:45:01.218Z,95.40
2019-04-04T04:47:28.309Z,95.40
2019-04-04T04:49:55.698Z,95.50
2019-04-04T04:52:22.810Z,95.50
2019-04-04T04:54:54.299Z,95.60
2019-04-04T04:57:29.636Z,95.30
2019-04-04T04:59:49.061Z,95.90
2019-04-04T05:02:16.375Z,96.10
2019-04-04T05:04:43.819Z,96.60
2019-04-04T05:07:11.281Z,96.60
2019-04-04T05:09:38.614Z,96.40
2019-04-04T05:12:05.663Z,96.10
2019-04-04T05:14:32.725Z,96.10
2019-04-04T05:17:00.443Z,96.30
2019-04-04T05:19:27.622Z,96.20
2019-04-04T05:21:55.102Z,95.90
2019-04-04T05:24:22.193Z,96.00
2019-04-04T05:26:49.351Z,96.40
2019-04-04T05:29:16.805Z,96.20
2019-04-04T05:31:44.103Z,96.20
2019-04-04T05:34:11.155Z,96.10
2019-04-04T05:36:38.417Z,96.30
2019-04-04T05:39:06.598Z,96.00
2019-04-04T05:41:33.452Z,95.60
2019-04-04T05:44:00.760Z,95.80
2019-04-04T05:46:28.463Z,95.50
2019-04-04T05:48:55.613Z,96.00
2019-04-04T05:51:22.517Z,96.00
2019-04-04T05:53:49.928Z,95.50
2019-04-04T05:56:17.677Z,96.10
2019-04-04T05:58:44.788Z,95.50
2019-04-04T06:01:13.745Z,95.50
2019-04-04T06:03:40.958Z,95.10
2019-04-04T06:06:10.480Z,95.00
2019-04-04T06:08:42.427Z,95.00
2019-04-04T06:11:06.837Z,93.80
2019-04-04T06:13:33.942Z,93.90
2019-04-04T06:16:02.142Z,94.50
2019-04-04T06:18:30.529Z,94.00
2019-04-04T06:20:57.507Z,94.30
2019-04-04T06:23:25.751Z,93.70
2019-04-04T06:25:52.771Z,94.10
2019-04-04T06:28:19.652Z,93.60
2019-04-04T06:30:47.109Z,93.40
2019-04-04T06:33:14.071Z,94.20
2019-04-04T06:35:41.388Z,94.30
2019-04-04T06:38:08.669Z,94.10
2019-04-04T06:40:35.940Z,94.50
2019-04-04T06:43:04.205Z,94.30
2019-04-04T06:45:32.469Z,94.50
2019-04-04T06:48:00.098Z,95.20
2019-04-04T06:50:27.297Z,95.70
2019-04-04T06:52:56.625Z,95.80
2019-04-04T06:55:24.027Z,96.50
2019-04-04T06:57:51.525Z,96.30
2019-04-04T07:00:18.855Z,96.40
2019-04-04T07:02:47.274Z,96.60
2019-04-04T07:05:14.933Z,96.40
2019-04-04T07:07:43.851Z,96.60
2019-04-04T07:10:11.270Z,96.60
2019-04-04T07:12:38.788Z,96.60
2019-04-04T07:15:09.237Z,96.30
2019-04-04T07:17:39.931Z,95.60
2019-04-04T07:20:06.099Z,96.20
2019-04-04T07:22:33.575Z,95.80
2019-04-04T07:25:01.291Z,95.70
2019-04-04T07:27:29.591Z,95.10
2019-04-04T07:29:56.935Z,95.30
2019-04-04T07:32:24.564Z,95.40
2019-04-04T07:34:52.112Z,95.40
2019-04-04T07:37:21.735Z,95.90
2019-04-04T07:39:50.067Z,95.80
2019-04-04T07:42:17.442Z,96.00
2019-04-04T07:44:44.824Z,95.70
2019-04-04T07:47:11.911Z,95.60
2019-04-04T07:49:40.260Z,95.90
2019-04-04T07:52:07.710Z,96.00
2019-04-04T07:54:38.062Z,96.60
2019-04-04T07:57:03.745Z,96.60
2019-04-04T07:59:31.316Z,96.60
2019-04-04T08:01:58.177Z,96.60
2019-04-04T08:04:25.812Z,96.60
2019-04-04T08:06:53.409Z,96.50
2019-04-04T08:09:20.470Z,96.60
2019-04-04T08:11:47.945Z,96.60
2019-04-04T08:14:14.973Z,96.40
2019-04-04T08:16:42.234Z,96.40
2019-04-04T08:19:09.419Z,96.50
2019-04-04T08:21:36.634Z,96.60
2019-04-04T08:24:04.052Z,96.60
2019-04-04T08:26:31.159Z,96.60
2019-04-04T08:28:58.056Z,96.60
2019-04-04T08:31:25.194Z,96.60
2019-04-04T08:33:52.407Z,96.60
2019-04-04T08:36:19.531Z,96.60
2019-04-04T08:38:46.905Z,96.60
2019-04-04T08:41:14.811Z,96.60
2019-04-04T08:43:42.539Z,96.60
2019-04-04T08:46:09.749Z,96.60
2019-04-04T08:48:36.842Z,96.60
2019-04-04T08:51:04.152Z,96.60
2019-04-04T08:53:39.806Z,96.60
2019-04-04T08:56:00.954Z,96.60
2019-04-04T08:58:28.075Z,96.60
2019-04-04T09:00:55.059Z,96.60
2019-04-04T09:03:21.913Z,96.60
2019-04-04T09:05:49.484Z,96.60
2019-04-04T09:08:17.073Z,96.60
2019-04-04T09:10:44.551Z,96.60
2019-04-04T09:13:11.512Z,96.60
2019-04-04T09:15:41.689Z,96.60
2019-04-04T09:18:08.999Z,96.60
2019-04-04T09:20:36.242Z,96.60
2019-04-04T09:23:03.273Z,96.10
2019-04-04T09:25:30.442Z,96.10
2019-04-04T09:27:57.396Z,96.50
2019-04-04T09:30:24.489Z,96.10
2019-04-04T09:32:51.730Z,96.30
2019-04-04T09:35:18.931Z,96.60
2019-04-04T09:37:46.122Z,96.60
2019-04-04T09:40:13.180Z,95.90
2019-04-04T09:42:40.870Z,95.20
2019-04-04T09:45:08.315Z,95.30
2019-04-04T09:47:35.834Z,95.00
2019-04-04T09:50:03.786Z,95.20
2019-04-04T09:52:30.686Z,95.50
2019-04-04T09:54:58.163Z,94.10
2019-04-04T09:57:25.540Z,93.90
2019-04-04T09:59:52.739Z,93.20
2019-04-04T10:02:20.021Z,92.90
2019-04-04T10:04:47.014Z,92.80
2019-04-04T10:07:15.587Z,92.30
2019-04-04T10:09:42.564Z,93.10
2019-04-04T10:12:09.822Z,92.50
2019-04-04T10:14:36.654Z,92.70
2019-04-04T10:17:04.092Z,93.10
2019-04-04T10:19:31.959Z,93.50
2019-04-04T10:21:58.858Z,94.10
2019-04-04T10:24:26.002Z,94.10
2019-04-04T10:26:53.391Z,94.60
2019-04-04T10:29:20.689Z,94.00
2019-04-04T10:31:48.169Z,93.10
2019-04-04T10:34:15.337Z,93.00
2019-04-04T10:36:42.407Z,92.30
2019-04-04T10:39:11.634Z,92.80
2019-04-04T10:41:38.828Z,92.50
2019-04-04T10:44:06.150Z,91.70
2019-04-04T10:46:33.899Z,91.90
2019-04-04T10:49:01.039Z,92.30
2019-04-04T10:51:28.146Z,92.20
2019-04-04T10:53:55.664Z,92.30
2019-04-04T10:56:22.950Z,92.20
2019-04-04T10:58:53.545Z,91.80
2019-04-04T11:01:20.755Z,90.00
2019-04-04T11:03:48.231Z,89.90
2019-04-04T11:06:15.611Z,90.40
2019-04-04T11:08:42.857Z,90.90
2019-04-04T11:11:10.162Z,90.30
2019-04-04T11:13:37.652Z,89.60
2019-04-04T11:16:04.684Z,90.40
2019-04-04T11:18:31.917Z,90.50
2019-04-04T11:20:59.487Z,90.40
2019-04-04T11:23:26.315Z,90.00
2019-04-04T11:25:53.717Z,90.70
2019-04-04T11:28:21.046Z,89.50
2019-04-04T11:30:48.120Z,90.10
2019-04-04T11:33:15.297Z,90.20
2019-04-04T11:35:42.239Z,89.50
2019-04-04T11:38:09.666Z,89.70
2019-04-04T11:40:36.513Z,89.80
2019-04-04T11:43:03.894Z,89.20
2019-04-04T11:45:31.414Z,89.50
2019-04-04T11:47:58.433Z,89.70
2019-04-04T11:50:26.141Z,90.00
2019-04-04T11:52:54.310Z,89.80
2019-04-04T11:55:21.661Z,90.00
2019-04-04T11:57:48.912Z,90.80
2019-04-04T12:00:22.448Z,90.80
2019-04-04T12:02:49.657Z,91.60
2019-04-04T12:05:17.167Z,90.70
2019-04-04T12:07:44.088Z,90.70
2019-04-04T12:10:11.901Z,90.50
2019-04-04T12:12:38.764Z,89.70
2019-04-04T12:15:05.955Z,89.30
2019-04-04T12:17:33.708Z,89.70
2019-04-04T12:20:01.003Z,88.70
2019-04-04T12:22:28.087Z,89.60
2019-04-04T12:24:55.662Z,89.10
2019-04-04T12:27:22.719Z,88.00
2019-04-04T12:29:49.775Z,89.00
2019-04-04T12:32:16.855Z,88.70
2019-04-04T12:34:44.238Z,88.30
2019-04-04T12:37:11.463Z,88.90
2019-04-04T12:39:38.282Z,90.00
2019-04-04T12:42:05.559Z,88.90
2019-04-04T12:44:33.896Z,89.60
2019-04-04T12:47:01.798Z,90.00
2019-04-04T12:49:28.983Z,90.90
2019-04-04T12:51:56.338Z,91.10
2019-04-04T12:54:23.169Z,91.00
2019-04-04T12:56:50.419Z,92.00
2019-04-04T12:59:17.882Z,91.90
2019-04-04T13:01:46.182Z,92.10
2019-04-04T13:04:13.537Z,91.80
2019-04-04T13:06:40.889Z,92.10
2019-04-04T13:09:08.470Z,91.90
2019-04-04T13:11:35.965Z,91.60
2019-04-04T13:14:03.395Z,91.10
2019-04-04T13:16:30.823Z,91.60
2019-04-04T13:18:57.835Z,90.50
2019-04-04T13:21:25.525Z,91.50
2019-04-04T13:23:52.387Z,91.60
2019-04-04T13:26:19.289Z,91.10
2019-04-04T13:28:46.193Z,90.90
2019-04-04T13:31:13.659Z,90.20
2019-04-04T13:33:41.225Z,90.10
2019-04-04T13:36:08.627Z,90.70
2019-04-04T13:38:35.540Z,90.00
2019-04-04T13:41:03.061Z,89.20
2019-04-04T13:43:30.364Z,89.10
2019-04-04T13:45:57.447Z,90.20
2019-04-04T13:48:24.895Z,89.50
2019-04-04T13:50:52.196Z,88.10
2019-04-04T13:53:20.784Z,88.50
2019-04-04T13:55:48.385Z,89.40
2019-04-04T13:58:17.543Z,88.70
2019-04-04T14:00:45.000Z,89.60
2019-04-04T14:03:12.097Z,89.20
2019-04-04T14:05:39.202Z,89.20
2019-04-04T14:08:06.785Z,89.20
2019-04-04T14:10:37.466Z,88.90
2019-04-04T14:13:04.703Z,89.20
2019-04-04T14:15:31.908Z,88.20
2019-04-04T14:17:59.324Z,87.70
2019-04-04T14:20:26.426Z,87.50
2019-04-04T14:22:53.554Z,86.90
2019-04-04T14:25:20.661Z,87.20
2019-04-04T14:27:48.010Z,86.40
2019-04-04T14:30:15.516Z,86.50
2019-04-04T14:32:43.202Z,84.90
2019-04-04T14:35:10.583Z,84.30
2019-04-04T14:37:37.467Z,83.80
2019-04-04T14:40:04.852Z,84.00
2019-04-04T14:42:32.100Z,83.10
2019-04-04T14:45:02.196Z,83.10
2019-04-04T14:47:29.313Z,81.70
2019-04-04T14:49:56.802Z,80.80
2019-04-04T14:52:24.342Z,79.90
2019-04-04T14:54:52.082Z,78.80
2019-04-04T14:57:19.610Z,78.80
2019-04-04T14:59:46.623Z,78.70
2019-04-04T15:02:13.572Z,79.50
2019-04-04T15:04:41.148Z,78.70
2019-04-04T15:07:08.856Z,78.30
2019-04-04T15:09:35.990Z,79.10
2019-04-04T15:12:03.342Z,79.60
2019-04-04T15:14:30.898Z,80.70
2019-04-04T15:16:58.318Z,80.50
2019-04-04T15:19:25.734Z,80.90
2019-04-04T15:21:52.837Z,81.40
2019-04-04T15:24:19.748Z,83.10
2019-04-04T15:26:47.166Z,83.00
2019-04-04T15:29:14.061Z,83.30
2019-04-04T15:31:41.268Z,85.00
2019-04-04T15:34:08.484Z,85.90
2019-04-04T15:36:35.749Z,85.80
2019-04-04T15:39:05.100Z,86.30
2019-04-04T15:41:37.168Z,86.60
2019-04-04T15:44:02.502Z,86.30
2019-04-04T15:46:30.123Z,86.90
2019-04-04T15:48:58.047Z,86.60
2019-04-04T15:51:25.308Z,86.70
2019-04-04T15:53:52.379Z,87.00
2019-04-04T15:56:19.815Z,87.20
2019-04-04T15:58:47.333Z,87.30
2019-04-04T16:01:14.683Z,86.90
2019-04-04T16:03:42.204Z,87.40
2019-04-04T16:06:09.684Z,87.80
2019-04-04T16:08:37.620Z,87.30
2019-04-04T16:11:05.045Z,87.10
2019-04-04T16:13:32.914Z,87.70
2019-04-04T16:16:00.533Z,88.30
2019-04-04T16:18:27.678Z,89.50
2019-04-04T16:20:55.396Z,89.70
2019-04-04T16:23:22.612Z,89.00
2019-04-04T16:25:49.626Z,89.80
2019-04-04T16:28:16.777Z,90.00
2019-04-04T16:30:44.695Z,90.40
2019-04-04T16:33:11.850Z,90.40
2019-04-04T16:35:38.954Z,89.10
2019-04-04T16:38:07.435Z,87.00
2019-04-04T16:40:34.850Z,85.80
2019-04-04T16:43:01.927Z,86.30
2019-04-04T16:45:29.508Z,86.40
2019-04-04T16:47:56.971Z,86.00
2019-04-04T16:50:24.498Z,84.60
2019-04-04T16:52:51.865Z,83.70
2019-04-04T16:55:19.654Z,84.70
2019-04-04T16:57:48.589Z,84.10
2019-04-04T17:00:20.947Z,84.40
2019-04-04T17:02:47.465Z,84.20
2019-04-04T17:05:14.852Z,84.30
2019-04-04T17:07:42.173Z,84.10
2019-04-04T17:10:11.164Z,84.10
2019-04-04T17:12:38.395Z,83.30
2019-04-04T17:15:06.305Z,83.80
2019-04-04T17:17:33.828Z,83.50
2019-04-04T17:20:01.226Z,82.50
2019-04-04T17:22:29.313Z,83.10
2019-04-04T17:24:56.761Z,82.90
2019-04-04T17:27:23.858Z,83.00
2019-04-04T17:29:51.342Z,83.40
2019-04-04T17:32:18.330Z,84.10
2019-04-04T17:34:45.668Z,83.40
2019-04-04T17:37:15.359Z,83.60
2019-04-04T17:39:42.711Z,83.90
2019-04-04T17:42:09.817Z,84.40
2019-04-04T17:44:37.445Z,84.30
2019-04-04T17:47:04.713Z,84.40
2019-04-04T17:49:32.735Z,84.70
2019-04-04T17:52:00.705Z,84.90
2019-04-04T17:54:28.233Z,84.80
2019-04-04T17:56:56.020Z,84.80
2019-04-04T17:59:23.337Z,84.60
2019-04-04T18:01:51.029Z,84.80
2019-04-04T18:04:18.223Z,84.90
2019-04-04T18:06:46.076Z,85.20
2019-04-04T18:09:13.414Z,85.30
2019-04-04T18:11:41.037Z,85.00
2019-04-04T18:14:08.297Z,85.00
2019-04-04T18:16:35.619Z,85.10
2019-04-04T18:19:02.786Z,85.20
2019-04-04T18:21:30.310Z,85.00
2019-04-04T18:23:57.831Z,84.80
2019-04-04T18:26:25.312Z,84.60
2019-04-04T18:28:52.863Z,84.40
2019-04-04T18:31:20.359Z,84.50
2019-04-04T18:33:47.647Z,84.50
2019-04-04T18:36:15.297Z,84.20
2019-04-04T18:38:42.498Z,84.40
2019-04-04T18:41:10.035Z,84.60
2019-04-04T18:43:37.135Z,84.60
2019-04-04T18:46:08.195Z,85.20
2019-04-04T18:48:35.467Z,85.60
2019-04-04T18:51:02.596Z,86.00
2019-04-04T18:53:29.855Z,86.20
2019-04-04T18:56:00.294Z,86.30
2019-04-04T18:58:27.754Z,86.60
2019-04-04T19:00:54.990Z,86.40
2019-04-04T19:03:22.309Z,86.20
2019-04-04T19:05:49.711Z,86.60
2019-04-04T19:08:17.236Z,86.40
2019-04-04T19:10:44.793Z,86.30
2019-04-04T19:13:12.369Z,87.00
2019-04-04T19:15:40.338Z,87.30
2019-04-04T19:18:08.249Z,87.30
2019-04-04T19:20:35.667Z,87.90
2019-04-04T19:23:02.853Z,88.50
2019-04-04T19:25:30.084Z,88.20
2019-04-04T19:27:57.403Z,89.10
2019-04-04T19:30:24.993Z,89.20
2019-04-04T19:32:55.764Z,89.20
2019-04-04T19:35:22.759Z,89.50
2019-04-04T19:38:00.121Z,89.50
2019-04-04T19:40:20.252Z,89.30
2019-04-04T19:42:47.858Z,89.60
2019-04-04T19:45:15.952Z,90.00
2019-04-04T19:47:43.405Z,90.50
2019-04-04T19:50:11.339Z,90.50
2019-04-04T19:52:38.553Z,90.80
2019-04-04T19:55:06.193Z,90.40
2019-04-04T19:57:33.623Z,90.50
2019-04-04T20:00:00.574Z,90.40
2019-04-04T20:02:27.529Z,90.80
2019-04-04T20:04:55.118Z,90.90
2019-04-04T20:07:22.538Z,90.60
2019-04-04T20:09:50.190Z,91.00
2019-04-04T20:12:17.765Z,91.90
2019-04-04T20:14:45.013Z,92.00
2019-04-04T20:17:12.413Z,92.00
2019-04-04T20:19:39.812Z,92.20
2019-04-04T20:22:07.042Z,91.10
2019-04-04T20:24:34.250Z,91.00
2019-04-04T20:27:05.051Z,91.50
2019-04-04T20:29:32.429Z,92.10
2019-04-04T20:31:59.976Z,92.70
2019-04-04T20:34:26.923Z,93.00
2019-04-04T20:36:54.141Z,92.70
2019-04-04T20:39:21.489Z,92.80
2019-04-04T20:41:48.506Z,93.50
2019-04-04T20:44:15.620Z,93.50
2019-04-04T20:46:43.329Z,93.80
2019-04-04T20:49:10.328Z,93.70
2019-04-04T20:51:37.451Z,93.90
2019-04-04T20:54:04.822Z,94.00
2019-04-04T20:56:32.493Z,93.90
2019-04-04T20:58:59.516Z,94.20
2019-04-04T21:01:26.979Z,94.50
2019-04-04T21:03:54.459Z,94.90
2019-04-04T21:06:21.635Z,95.00
2019-04-04T21:08:49.017Z,94.90
2019-04-04T21:11:16.092Z,94.90
2019-04-04T21:13:55.241Z,95.20
2019-04-04T21:16:12.375Z,95.30
2019-04-04T21:18:42.995Z,95.30
2019-04-04T21:21:10.528Z,95.10
2019-04-04T21:23:37.808Z,95.40
2019-04-04T21:26:05.167Z,95.10
2019-04-04T21:28:32.257Z,95.20
2019-04-04T21:30:59.495Z,94.90
2019-04-04T21:33:26.848Z,94.70
2019-04-04T21:35:54.175Z,95.10
2019-04-04T21:38:21.450Z,95.50
2019-04-04T21:40:48.886Z,95.70
2019-04-04T21:43:15.990Z,95.80
2019-04-04T21:45:43.179Z,95.00
2019-04-04T21:48:10.551Z,94.70
2019-04-04T21:50:38.375Z,94.70
2019-04-04T21:53:06.245Z,95.00
2019-04-04T21:55:33.556Z,95.30
2019-04-04T21:58:00.892Z,96.10
2019-04-04T22:00:41.133Z,96.60
2019-04-04T22:03:08.885Z,96.60
2019-04-04T22:05:36.987Z,96.60
2019-04-04T22:08:04.649Z,96.60
2019-04-04T22:10:32.123Z,96.60
2019-04-04T22:12:59.116Z,96.60
2019-04-04T22:15:26.599Z,96.60
2019-04-04T22:17:53.661Z,96.60
2019-04-04T22:20:21.154Z,96.60
2019-04-04T22:22:48.724Z,96.60
2019-04-04T22:25:16.426Z,96.60
2019-04-04T22:27:43.480Z,96.60
2019-04-04T22:30:11.294Z,96.60
2019-04-04T22:32:38.462Z,96.60
2019-04-04T22:35:06.295Z,96.60
2019-04-04T22:37:33.780Z,96.60
2019-04-04T22:40:02.039Z,96.60
2019-04-04T22:42:29.745Z,96.60
2019-04-04T22:44:57.012Z,96.60
2019-04-04T22:47:24.208Z,96.60
2019-04-04T22:49:52.889Z,96.60
2019-04-04T22:52:20.127Z,96.60
2019-04-04T22:54:48.003Z,96.60
2019-04-04T22:57:15.294Z,96.60
2019-04-04T22:59:42.391Z,96.60
2019-04-04T23:02:09.340Z,96.60
2019-04-04T23:04:36.526Z,96.60
2019-04-04T23:07:04.125Z,96.60
2019-04-04T23:09:30.339Z,96.60
2019-04-04T23:11:57.664Z,96.30
2019-04-04T23:14:24.654Z,96.20
2019-04-04T23:16:52.226Z,96.50
2019-04-04T23:19:19.336Z,96.60
2019-04-04T23:21:46.531Z,96.30
2019-04-04T23:24:13.723Z,95.60
2019-04-04T23:26:41.002Z,95.50
2019-04-04T23:29:08.024Z,95.80
2019-04-04T23:31:36.222Z,96.00
2019-04-04T23:34:03.399Z,96.60
2019-04-04T23:36:35.172Z,96.50
2019-04-04T23:39:00.398Z,96.60
2019-04-04T23:41:27.267Z,96.60
2019-04-04T23:43:54.844Z,96.60
2019-04-04T23:46:22.173Z,96.60
2019-04-04T23:48:49.473Z,96.60
2019-04-04T23:51:17.371Z,96.60
2019-04-04T23:53:44.745Z,96.60
2019-04-04T23:56:12.115Z,96.60
2019-04-04T23:58:39.590Z,96.60
